sensor_id;sensor_type;location;lat;lon;timestamp;pressure;altitude;pressure_sealevel;temperature;humidity
74905;BME280;63465;50.862;6.220;2023-06-22T00:00:49;100171.34;;;21.06;100.00
74905;BME280;63465;50.862;6.220;2023-06-22T00:03:15;100167.84;;;20.94;100.00
74905;BME280;63465;50.862;6.220;2023-06-22T00:05:40;100168.00;;;20.92;100.00
74905;BME280;63465;50.862;6.220;2023-06-22T00:08:05;100162.91;;;20.99;100.00
74905;BME280;63465;50.862;6.220;2023-06-22T00:10:31;100166.41;;;21.11;100.00
74905;BME280;63465;50.862;6.220;2023-06-22T00:12:56;100161.81;;;21.23;100.00
74905;BME280;63465;50.862;6.220;2023-06-22T00:15:21;100161.84;;;21.11;100.00
74905;BME280;63465;50.862;6.220;2023-06-22T00:17:47;100164.81;;;21.08;100.00
74905;BME280;63465;50.862;6.220;2023-06-22T00:20:12;100170.88;;;21.00;100.00
74905;BME280;63465;50.862;6.220;2023-06-22T00:22:39;100167.34;;;21.00;100.00
74905;BME280;63465;50.862;6.220;2023-06-22T00:25:06;100159.44;;;21.08;100.00
74905;BME280;63465;50.862;6.220;2023-06-22T00:27:32;100160.53;;;21.06;100.00
74905;BME280;63465;50.862;6.220;2023-06-22T00:29:57;100166.13;;;20.93;100.00
74905;BME280;63465;50.862;6.220;2023-06-22T00:32:22;100165.31;;;20.81;100.00
74905;BME280;63465;50.862;6.220;2023-06-22T00:34:48;100169.94;;;20.90;100.00
74905;BME280;63465;50.862;6.220;2023-06-22T00:37:13;100160.47;;;20.96;100.00
74905;BME280;63465;50.862;6.220;2023-06-22T00:39:38;100160.34;;;20.97;100.00
74905;BME280;63465;50.862;6.220;2023-06-22T00:42:04;100150.53;;;20.96;100.00
74905;BME280;63465;50.862;6.220;2023-06-22T00:44:29;100158.81;;;20.83;100.00
74905;BME280;63465;50.862;6.220;2023-06-22T00:46:55;100146.44;;;20.81;100.00
74905;BME280;63465;50.862;6.220;2023-06-22T00:49:20;100147.78;;;20.87;100.00
74905;BME280;63465;50.862;6.220;2023-06-22T00:51:46;100146.44;;;20.81;100.00
74905;BME280;63465;50.862;6.220;2023-06-22T00:54:13;100141.19;;;20.79;100.00
74905;BME280;63465;50.862;6.220;2023-06-22T00:56:42;100144.22;;;20.86;100.00
74905;BME280;63465;50.862;6.220;2023-06-22T00:59:09;100146.19;;;20.84;100.00
74905;BME280;63465;50.862;6.220;2023-06-22T01:01:37;100144.63;;;20.81;100.00
74905;BME280;63465;50.862;6.220;2023-06-22T01:04:06;100135.47;;;20.73;100.00
74905;BME280;63465;50.862;6.220;2023-06-22T01:06:35;100137.25;;;20.83;100.00
74905;BME280;63465;50.862;6.220;2023-06-22T01:09:15;100128.75;;;20.88;100.00
74905;BME280;63465;50.862;6.220;2023-06-22T01:11:56;100123.84;;;20.61;100.00
74905;BME280;63465;50.862;6.220;2023-06-22T01:14:28;100127.50;;;20.71;100.00
74905;BME280;63465;50.862;6.220;2023-06-22T01:16:57;100117.59;;;20.60;100.00
74905;BME280;63465;50.862;6.220;2023-06-22T01:22:00;100119.59;;;20.58;100.00
74905;BME280;63465;50.862;6.220;2023-06-22T01:24:30;100115.81;;;20.49;100.00
74905;BME280;63465;50.862;6.220;2023-06-22T01:29:52;100109.31;;;20.52;100.00
74905;BME280;63465;50.862;6.220;2023-06-22T01:32:28;100108.81;;;20.47;100.00
74905;BME280;63465;50.862;6.220;2023-06-22T01:34:55;100110.03;;;20.54;100.00
74905;BME280;63465;50.862;6.220;2023-06-22T01:37:21;100115.88;;;20.59;100.00
74905;BME280;63465;50.862;6.220;2023-06-22T01:39:47;100115.72;;;20.40;100.00
74905;BME280;63465;50.862;6.220;2023-06-22T01:42:13;100111.78;;;20.44;100.00
74905;BME280;63465;50.862;6.220;2023-06-22T01:44:39;100103.44;;;20.47;100.00
74905;BME280;63465;50.862;6.220;2023-06-22T01:47:05;100102.97;;;20.42;100.00
74905;BME280;63465;50.862;6.220;2023-06-22T01:49:31;100104.34;;;20.36;100.00
74905;BME280;63465;50.862;6.220;2023-06-22T01:51:57;100105.44;;;20.34;100.00
74905;BME280;63465;50.862;6.220;2023-06-22T01:54:22;100101.47;;;20.49;100.00
74905;BME280;63465;50.862;6.220;2023-06-22T01:56:47;100109.13;;;20.33;100.00
74905;BME280;63465;50.862;6.220;2023-06-22T01:59:28;100106.69;;;20.29;100.00
74905;BME280;63465;50.862;6.220;2023-06-22T02:02:17;100102.28;;;20.28;100.00
74905;BME280;63465;50.862;6.220;2023-06-22T02:04:48;100101.69;;;20.25;100.00
74905;BME280;63465;50.862;6.220;2023-06-22T02:07:17;100102.88;;;20.32;100.00
74905;BME280;63465;50.862;6.220;2023-06-22T02:09:46;100108.38;;;20.30;100.00
74905;BME280;63465;50.862;6.220;2023-06-22T02:12:17;100106.97;;;20.26;100.00
74905;BME280;63465;50.862;6.220;2023-06-22T02:14:44;100100.34;;;20.19;100.00
74905;BME280;63465;50.862;6.220;2023-06-22T02:17:11;100088.34;;;20.23;100.00
74905;BME280;63465;50.862;6.220;2023-06-22T02:19:37;100094.53;;;20.03;100.00
74905;BME280;63465;50.862;6.220;2023-06-22T02:22:04;100096.31;;;20.25;100.00
74905;BME280;63465;50.862;6.220;2023-06-22T02:24:30;100092.47;;;20.27;100.00
74905;BME280;63465;50.862;6.220;2023-06-22T02:27:01;100090.53;;;20.29;100.00
74905;BME280;63465;50.862;6.220;2023-06-22T02:29:26;100092.56;;;20.05;100.00
74905;BME280;63465;50.862;6.220;2023-06-22T02:31:53;100084.25;;;20.08;100.00
74905;BME280;63465;50.862;6.220;2023-06-22T02:34:18;100086.94;;;20.08;100.00
74905;BME280;63465;50.862;6.220;2023-06-22T02:36:47;100082.25;;;20.10;100.00
74905;BME280;63465;50.862;6.220;2023-06-22T02:39:24;100078.59;;;20.11;100.00
74905;BME280;63465;50.862;6.220;2023-06-22T02:41:50;100077.72;;;20.10;100.00
74905;BME280;63465;50.862;6.220;2023-06-22T02:44:16;100076.78;;;20.00;100.00
74905;BME280;63465;50.862;6.220;2023-06-22T02:46:42;100081.06;;;20.03;100.00
74905;BME280;63465;50.862;6.220;2023-06-22T02:49:07;100076.16;;;20.08;100.00
74905;BME280;63465;50.862;6.220;2023-06-22T02:51:34;100069.44;;;20.02;100.00
74905;BME280;63465;50.862;6.220;2023-06-22T02:54:00;100070.06;;;19.94;100.00
74905;BME280;63465;50.862;6.220;2023-06-22T02:56:25;100066.41;;;19.95;100.00
74905;BME280;63465;50.862;6.220;2023-06-22T02:58:51;100068.84;;;19.99;100.00
74905;BME280;63465;50.862;6.220;2023-06-22T03:01:16;100059.50;;;20.03;100.00
74905;BME280;63465;50.862;6.220;2023-06-22T03:03:42;100060.78;;;19.87;100.00
74905;BME280;63465;50.862;6.220;2023-06-22T03:06:07;100055.75;;;19.94;100.00
74905;BME280;63465;50.862;6.220;2023-06-22T03:08:33;100052.81;;;19.86;100.00
74905;BME280;63465;50.862;6.220;2023-06-22T03:10:59;100044.34;;;19.90;100.00
74905;BME280;63465;50.862;6.220;2023-06-22T03:13:24;100032.63;;;19.91;100.00
74905;BME280;63465;50.862;6.220;2023-06-22T03:15:50;100021.38;;;19.86;100.00
74905;BME280;63465;50.862;6.220;2023-06-22T03:18:15;100019.19;;;19.80;100.00
74905;BME280;63465;50.862;6.220;2023-06-22T03:20:41;100018.19;;;19.70;100.00
74905;BME280;63465;50.862;6.220;2023-06-22T03:23:06;100008.88;;;19.74;100.00
74905;BME280;63465;50.862;6.220;2023-06-22T03:25:31;100008.88;;;19.85;100.00
74905;BME280;63465;50.862;6.220;2023-06-22T03:27:58;100014.53;;;19.82;100.00
74905;BME280;63465;50.862;6.220;2023-06-22T03:30:23;100009.59;;;19.87;100.00
74905;BME280;63465;50.862;6.220;2023-06-22T03:32:49;100020.38;;;19.87;100.00
74905;BME280;63465;50.862;6.220;2023-06-22T03:35:14;100016.00;;;19.86;100.00
74905;BME280;63465;50.862;6.220;2023-06-22T03:37:40;100014.34;;;19.95;100.00
74905;BME280;63465;50.862;6.220;2023-06-22T03:40:05;100022.59;;;19.82;100.00
74905;BME280;63465;50.862;6.220;2023-06-22T03:42:31;100030.88;;;20.02;100.00
74905;BME280;63465;50.862;6.220;2023-06-22T03:44:56;100026.13;;;19.83;100.00
74905;BME280;63465;50.862;6.220;2023-06-22T03:47:22;100035.81;;;19.85;100.00
74905;BME280;63465;50.862;6.220;2023-06-22T03:49:47;100029.84;;;19.82;100.00
74905;BME280;63465;50.862;6.220;2023-06-22T03:52:13;100025.88;;;19.86;100.00
74905;BME280;63465;50.862;6.220;2023-06-22T03:54:38;100023.19;;;19.97;100.00
74905;BME280;63465;50.862;6.220;2023-06-22T03:57:04;100033.84;;;19.87;100.00
74905;BME280;63465;50.862;6.220;2023-06-22T03:59:29;100037.88;;;19.70;100.00
74905;BME280;63465;50.862;6.220;2023-06-22T04:01:54;100035.94;;;19.84;100.00
74905;BME280;63465;50.862;6.220;2023-06-22T04:04:20;100040.09;;;19.88;100.00
74905;BME280;63465;50.862;6.220;2023-06-22T04:06:45;100042.66;;;19.89;100.00
74905;BME280;63465;50.862;6.220;2023-06-22T04:09:11;100038.38;;;19.87;100.00
74905;BME280;63465;50.862;6.220;2023-06-22T04:11:36;100038.47;;;19.96;100.00
74905;BME280;63465;50.862;6.220;2023-06-22T04:14:02;100044.59;;;19.87;100.00
74905;BME280;63465;50.862;6.220;2023-06-22T04:16:27;100035.31;;;19.91;100.00
74905;BME280;63465;50.862;6.220;2023-06-22T04:18:52;100034.03;;;20.07;100.00
74905;BME280;63465;50.862;6.220;2023-06-22T04:21:18;100042.03;;;19.86;100.00
74905;BME280;63465;50.862;6.220;2023-06-22T04:23:45;100033.00;;;19.87;100.00
74905;BME280;63465;50.862;6.220;2023-06-22T04:26:11;100045.22;;;19.91;100.00
74905;BME280;63465;50.862;6.220;2023-06-22T04:28:36;100046.66;;;19.95;100.00
74905;BME280;63465;50.862;6.220;2023-06-22T04:31:02;100046.91;;;20.24;100.00
74905;BME280;63465;50.862;6.220;2023-06-22T04:33:28;100043.13;;;20.27;100.00
74905;BME280;63465;50.862;6.220;2023-06-22T04:35:55;100039.13;;;20.42;100.00
74905;BME280;63465;50.862;6.220;2023-06-22T04:38:22;100046.00;;;20.35;100.00
74905;BME280;63465;50.862;6.220;2023-06-22T04:40:47;100035.63;;;20.30;100.00
74905;BME280;63465;50.862;6.220;2023-06-22T04:43:13;100042.94;;;20.07;100.00
74905;BME280;63465;50.862;6.220;2023-06-22T04:45:38;100038.66;;;20.16;100.00
74905;BME280;63465;50.862;6.220;2023-06-22T04:48:05;100039.75;;;20.46;100.00
74905;BME280;63465;50.862;6.220;2023-06-22T04:50:30;100043.50;;;20.22;100.00
74905;BME280;63465;50.862;6.220;2023-06-22T04:52:55;100051.41;;;20.14;100.00
74905;BME280;63465;50.862;6.220;2023-06-22T04:55:20;100045.88;;;20.16;100.00
74905;BME280;63465;50.862;6.220;2023-06-22T04:57:46;100043.19;;;20.16;100.00
74905;BME280;63465;50.862;6.220;2023-06-22T05:00:15;100038.91;;;20.13;100.00
74905;BME280;63465;50.862;6.220;2023-06-22T05:02:43;100045.31;;;20.33;100.00
74905;BME280;63465;50.862;6.220;2023-06-22T05:05:09;100040.22;;;20.40;100.00
74905;BME280;63465;50.862;6.220;2023-06-22T05:07:39;100037.31;;;20.43;100.00
74905;BME280;63465;50.862;6.220;2023-06-22T05:10:08;100033.81;;;20.52;100.00
74905;BME280;63465;50.862;6.220;2023-06-22T05:12:33;100038.09;;;20.55;100.00
74905;BME280;63465;50.862;6.220;2023-06-22T05:14:59;100030.59;;;20.37;100.00
74905;BME280;63465;50.862;6.220;2023-06-22T05:17:24;100042.47;;;20.35;100.00
74905;BME280;63465;50.862;6.220;2023-06-22T05:19:50;100039.78;;;20.35;100.00
74905;BME280;63465;50.862;6.220;2023-06-22T05:22:15;100046.91;;;20.24;100.00
74905;BME280;63465;50.862;6.220;2023-06-22T05:24:41;100049.78;;;20.44;100.00
74905;BME280;63465;50.862;6.220;2023-06-22T05:27:07;100034.13;;;20.38;100.00
74905;BME280;63465;50.862;6.220;2023-06-22T05:29:33;100039.66;;;20.57;100.00
74905;BME280;63465;50.862;6.220;2023-06-22T05:31:58;100033.56;;;20.55;100.00
74905;BME280;63465;50.862;6.220;2023-06-22T05:34:23;100032.44;;;20.58;100.00
74905;BME280;63465;50.862;6.220;2023-06-22T05:36:49;100030.34;;;20.61;100.00
74905;BME280;63465;50.862;6.220;2023-06-22T05:39:14;100026.72;;;20.51;100.00
74905;BME280;63465;50.862;6.220;2023-06-22T05:41:40;100028.44;;;20.52;100.00
74905;BME280;63465;50.862;6.220;2023-06-22T05:44:06;100037.66;;;20.38;100.00
74905;BME280;63465;50.862;6.220;2023-06-22T05:46:31;100041.13;;;20.40;100.00
74905;BME280;63465;50.862;6.220;2023-06-22T05:48:56;100035.88;;;20.60;100.00
74905;BME280;63465;50.862;6.220;2023-06-22T05:51:22;100033.59;;;20.44;100.00
74905;BME280;63465;50.862;6.220;2023-06-22T05:53:47;100034.28;;;20.57;100.00
74905;BME280;63465;50.862;6.220;2023-06-22T05:56:15;100048.69;;;20.46;100.00
74905;BME280;63465;50.862;6.220;2023-06-22T05:58:40;100054.25;;;20.55;100.00
74905;BME280;63465;50.862;6.220;2023-06-22T06:01:06;100051.69;;;20.53;100.00
74905;BME280;63465;50.862;6.220;2023-06-22T06:03:31;100058.28;;;20.60;100.00
74905;BME280;63465;50.862;6.220;2023-06-22T06:05:56;100050.41;;;20.69;100.00
74905;BME280;63465;50.862;6.220;2023-06-22T06:08:22;100055.81;;;20.69;100.00
74905;BME280;63465;50.862;6.220;2023-06-22T06:10:47;100050.53;;;20.67;100.00
74905;BME280;63465;50.862;6.220;2023-06-22T06:13:12;100047.13;;;20.65;100.00
74905;BME280;63465;50.862;6.220;2023-06-22T06:15:38;100047.44;;;20.51;100.00
74905;BME280;63465;50.862;6.220;2023-06-22T06:18:04;100044.75;;;20.72;100.00
74905;BME280;63465;50.862;6.220;2023-06-22T06:20:30;100056.50;;;20.92;100.00
74905;BME280;63465;50.862;6.220;2023-06-22T06:22:56;100061.19;;;20.90;100.00
74905;BME280;63465;50.862;6.220;2023-06-22T06:25:22;100063.50;;;20.94;100.00
74905;BME280;63465;50.862;6.220;2023-06-22T06:27:49;100047.47;;;21.02;100.00
74905;BME280;63465;50.862;6.220;2023-06-22T06:30:16;100054.81;;;20.70;100.00
74905;BME280;63465;50.862;6.220;2023-06-22T06:32:42;100057.66;;;20.89;100.00
74905;BME280;63465;50.862;6.220;2023-06-22T06:35:09;100054.41;;;20.95;100.00
74905;BME280;63465;50.862;6.220;2023-06-22T06:37:36;100049.03;;;20.95;100.00
74905;BME280;63465;50.862;6.220;2023-06-22T06:40:06;100047.28;;;21.15;100.00
74905;BME280;63465;50.862;6.220;2023-06-22T06:42:35;100050.03;;;21.04;100.00
74905;BME280;63465;50.862;6.220;2023-06-22T06:45:03;100043.34;;;21.29;100.00
74905;BME280;63465;50.862;6.220;2023-06-22T06:47:28;100048.38;;;21.13;100.00
74905;BME280;63465;50.862;6.220;2023-06-22T06:49:54;100045.00;;;21.20;100.00
74905;BME280;63465;50.862;6.220;2023-06-22T06:52:19;100043.53;;;21.37;100.00
74905;BME280;63465;50.862;6.220;2023-06-22T06:54:45;100046.91;;;21.30;100.00
74905;BME280;63465;50.862;6.220;2023-06-22T06:57:10;100035.25;;;21.29;100.00
74905;BME280;63465;50.862;6.220;2023-06-22T06:59:38;100027.72;;;21.23;100.00
74905;BME280;63465;50.862;6.220;2023-06-22T07:02:04;100018.38;;;21.37;100.00
74905;BME280;63465;50.862;6.220;2023-06-22T07:04:30;100012.97;;;21.37;100.00
74905;BME280;63465;50.862;6.220;2023-06-22T07:06:55;100005.88;;;22.25;100.00
74905;BME280;63465;50.862;6.220;2023-06-22T07:09:20;100002.19;;;22.17;100.00
74905;BME280;63465;50.862;6.220;2023-06-22T07:11:46;99995.03;;;22.65;100.00
74905;BME280;63465;50.862;6.220;2023-06-22T07:14:11;99991.38;;;22.56;100.00
74905;BME280;63465;50.862;6.220;2023-06-22T07:16:36;99987.53;;;22.96;100.00
74905;BME280;63465;50.862;6.220;2023-06-22T07:19:02;99986.78;;;23.13;100.00
74905;BME280;63465;50.862;6.220;2023-06-22T07:21:27;99977.81;;;23.13;100.00
74905;BME280;63465;50.862;6.220;2023-06-22T07:23:52;99976.06;;;23.22;100.00
74905;BME280;63465;50.862;6.220;2023-06-22T07:26:19;99969.28;;;22.98;100.00
74905;BME280;63465;50.862;6.220;2023-06-22T07:28:44;99962.09;;;22.79;100.00
74905;BME280;63465;50.862;6.220;2023-06-22T07:31:10;99964.97;;;22.77;100.00
74905;BME280;63465;50.862;6.220;2023-06-22T07:33:35;99964.31;;;22.93;100.00
74905;BME280;63465;50.862;6.220;2023-06-22T07:36:00;99957.72;;;23.06;100.00
74905;BME280;63465;50.862;6.220;2023-06-22T07:38:26;99951.06;;;23.56;100.00
74905;BME280;63465;50.862;6.220;2023-06-22T07:40:52;99958.78;;;23.50;100.00
74905;BME280;63465;50.862;6.220;2023-06-22T07:43:18;99946.00;;;24.33;100.00
74905;BME280;63465;50.862;6.220;2023-06-22T07:45:48;99941.22;;;24.27;100.00
74905;BME280;63465;50.862;6.220;2023-06-22T07:48:19;99930.63;;;24.60;100.00
74905;BME280;63465;50.862;6.220;2023-06-22T07:50:45;99940.38;;;23.54;100.00
74905;BME280;63465;50.862;6.220;2023-06-22T07:53:10;99939.25;;;24.37;100.00
74905;BME280;63465;50.862;6.220;2023-06-22T07:55:35;99943.75;;;25.07;96.93
74905;BME280;63465;50.862;6.220;2023-06-22T07:58:00;99936.03;;;25.28;91.78
74905;BME280;63465;50.862;6.220;2023-06-22T08:00:26;99943.13;;;24.34;98.11
74905;BME280;63465;50.862;6.220;2023-06-22T08:02:51;99930.16;;;24.20;98.39
74905;BME280;63465;50.862;6.220;2023-06-22T08:05:16;99929.47;;;23.82;100.00
74905;BME280;63465;50.862;6.220;2023-06-22T08:07:42;99913.56;;;24.23;100.00
74905;BME280;63465;50.862;6.220;2023-06-22T08:10:12;99903.09;;;24.28;99.78
74905;BME280;63465;50.862;6.220;2023-06-22T08:12:39;99902.94;;;24.30;100.00
74905;BME280;63465;50.862;6.220;2023-06-22T08:15:05;99887.72;;;24.37;99.76
74905;BME280;63465;50.862;6.220;2023-06-22T08:17:30;99877.06;;;25.13;95.32
74905;BME280;63465;50.862;6.220;2023-06-22T08:19:56;99872.13;;;24.65;99.05
74905;BME280;63465;50.862;6.220;2023-06-22T08:22:22;99885.13;;;24.53;99.62
74905;BME280;63465;50.862;6.220;2023-06-22T08:24:47;99886.28;;;24.85;95.15
74905;BME280;63465;50.862;6.220;2023-06-22T08:27:12;99897.13;;;25.28;93.78
74905;BME280;63465;50.862;6.220;2023-06-22T08:29:39;99906.22;;;25.53;91.14
74905;BME280;63465;50.862;6.220;2023-06-22T08:32:04;99918.13;;;25.77;88.81
74905;BME280;63465;50.862;6.220;2023-06-22T08:34:30;99921.69;;;25.61;89.11
74905;BME280;63465;50.862;6.220;2023-06-22T08:36:55;99923.78;;;25.24;90.89
74905;BME280;63465;50.862;6.220;2023-06-22T08:39:21;99902.06;;;25.24;93.54
74905;BME280;63465;50.862;6.220;2023-06-22T08:41:47;99896.53;;;25.51;92.39
74905;BME280;63465;50.862;6.220;2023-06-22T08:44:12;99899.09;;;26.26;91.97
74905;BME280;63465;50.862;6.220;2023-06-22T08:46:38;99899.66;;;26.94;87.34
74905;BME280;63465;50.862;6.220;2023-06-22T08:49:06;99893.41;;;26.77;87.66
74905;BME280;63465;50.862;6.220;2023-06-22T08:51:31;99877.16;;;26.92;87.21
74905;BME280;63465;50.862;6.220;2023-06-22T08:53:56;99871.78;;;26.84;86.03
74905;BME280;63465;50.862;6.220;2023-06-22T08:56:22;99876.44;;;26.59;89.56
74905;BME280;63465;50.862;6.220;2023-06-22T08:58:47;99873.47;;;26.21;89.65
74905;BME280;63465;50.862;6.220;2023-06-22T09:01:12;99874.97;;;26.96;85.56
74905;BME280;63465;50.862;6.220;2023-06-22T09:03:40;99868.88;;;26.85;85.98
74905;BME280;63465;50.862;6.220;2023-06-22T09:06:05;99866.38;;;27.07;86.20
74905;BME280;63465;50.862;6.220;2023-06-22T09:08:30;99869.06;;;27.15;87.17
74905;BME280;63465;50.862;6.220;2023-06-22T09:10:55;99860.25;;;28.06;83.03
74905;BME280;63465;50.862;6.220;2023-06-22T09:13:21;99860.13;;;27.30;85.38
74905;BME280;63465;50.862;6.220;2023-06-22T09:15:47;99844.03;;;27.20;87.88
74905;BME280;63465;50.862;6.220;2023-06-22T09:18:13;99839.84;;;27.09;85.81
74905;BME280;63465;50.862;6.220;2023-06-22T09:20:39;99834.19;;;27.11;87.92
74905;BME280;63465;50.862;6.220;2023-06-22T09:23:04;99832.63;;;26.85;88.68
74905;BME280;63465;50.862;6.220;2023-06-22T09:25:30;99833.72;;;26.67;88.08
74905;BME280;63465;50.862;6.220;2023-06-22T09:27:55;99831.97;;;26.27;91.04
74905;BME280;63465;50.862;6.220;2023-06-22T09:30:21;99833.53;;;25.88;92.58
74905;BME280;63465;50.862;6.220;2023-06-22T09:32:46;99834.22;;;25.74;95.32
74905;BME280;63465;50.862;6.220;2023-06-22T09:35:11;99840.50;;;25.50;95.46
74905;BME280;63465;50.862;6.220;2023-06-22T09:37:38;99835.25;;;25.73;94.51
74905;BME280;63465;50.862;6.220;2023-06-22T09:40:04;99847.44;;;25.36;96.55
74905;BME280;63465;50.862;6.220;2023-06-22T09:42:35;99847.56;;;25.26;97.95
74905;BME280;63465;50.862;6.220;2023-06-22T09:45:00;99849.84;;;24.96;100.00
74905;BME280;63465;50.862;6.220;2023-06-22T09:47:27;99861.31;;;25.16;100.00
74905;BME280;63465;50.862;6.220;2023-06-22T09:49:52;99879.09;;;25.70;96.51
74905;BME280;63465;50.862;6.220;2023-06-22T09:52:18;99900.44;;;25.40;96.73
74905;BME280;63465;50.862;6.220;2023-06-22T09:54:43;99928.88;;;25.27;97.83
74905;BME280;63465;50.862;6.220;2023-06-22T09:57:08;99939.00;;;25.60;98.02
74905;BME280;63465;50.862;6.220;2023-06-22T09:59:34;99949.09;;;24.90;99.71
74905;BME280;63465;50.862;6.220;2023-06-22T10:01:59;99946.47;;;24.72;100.00
74905;BME280;63465;50.862;6.220;2023-06-22T10:04:24;99953.28;;;24.32;100.00
74905;BME280;63465;50.862;6.220;2023-06-22T10:06:50;99953.50;;;24.39;100.00
74905;BME280;63465;50.862;6.220;2023-06-22T10:09:18;99954.25;;;24.05;100.00
74905;BME280;63465;50.862;6.220;2023-06-22T10:11:44;99971.03;;;23.73;100.00
74905;BME280;63465;50.862;6.220;2023-06-22T10:14:09;99962.66;;;23.94;100.00
74905;BME280;63465;50.862;6.220;2023-06-22T10:16:36;99966.47;;;23.73;100.00
74905;BME280;63465;50.862;6.220;2023-06-22T10:19:01;99973.88;;;23.99;100.00
74905;BME280;63465;50.862;6.220;2023-06-22T10:21:27;99977.44;;;23.54;100.00
74905;BME280;63465;50.862;6.220;2023-06-22T10:23:53;99982.09;;;23.33;100.00
74905;BME280;63465;50.862;6.220;2023-06-22T10:26:19;99976.16;;;23.30;100.00
74905;BME280;63465;50.862;6.220;2023-06-22T10:28:44;99992.69;;;23.27;100.00
74905;BME280;63465;50.862;6.220;2023-06-22T10:31:10;99983.81;;;22.97;100.00
74905;BME280;63465;50.862;6.220;2023-06-22T10:33:35;99975.56;;;22.41;100.00
74905;BME280;63465;50.862;6.220;2023-06-22T10:36:00;99977.84;;;22.56;100.00
74905;BME280;63465;50.862;6.220;2023-06-22T10:38:25;99972.06;;;22.78;100.00
74905;BME280;63465;50.862;6.220;2023-06-22T10:40:51;99967.25;;;22.72;100.00
74905;BME280;63465;50.862;6.220;2023-06-22T10:43:16;99963.75;;;22.52;100.00
74905;BME280;63465;50.862;6.220;2023-06-22T10:45:41;99944.13;;;22.50;100.00
74905;BME280;63465;50.862;6.220;2023-06-22T10:48:07;99926.03;;;22.51;100.00
74905;BME280;63465;50.862;6.220;2023-06-22T10:50:32;99906.50;;;22.57;100.00
74905;BME280;63465;50.862;6.220;2023-06-22T10:52:57;99903.94;;;22.65;100.00
74905;BME280;63465;50.862;6.220;2023-06-22T10:55:22;99899.91;;;22.69;100.00
74905;BME280;63465;50.862;6.220;2023-06-22T10:57:48;99887.72;;;22.65;100.00
74905;BME280;63465;50.862;6.220;2023-06-22T11:00:14;99890.69;;;22.62;100.00
74905;BME280;63465;50.862;6.220;2023-06-22T11:02:40;99886.31;;;23.17;100.00
74905;BME280;63465;50.862;6.220;2023-06-22T11:05:06;99868.69;;;23.12;100.00
74905;BME280;63465;50.862;6.220;2023-06-22T11:07:31;99855.22;;;23.75;100.00
74905;BME280;63465;50.862;6.220;2023-06-22T11:09:57;99854.72;;;24.15;100.00
74905;BME280;63465;50.862;6.220;2023-06-22T11:12:23;99846.16;;;23.84;100.00
74905;BME280;63465;50.862;6.220;2023-06-22T11:14:48;99838.03;;;23.84;100.00
74905;BME280;63465;50.862;6.220;2023-06-22T11:17:16;99823.03;;;23.72;100.00
74905;BME280;63465;50.862;6.220;2023-06-22T11:19:42;99807.41;;;24.10;100.00
74905;BME280;63465;50.862;6.220;2023-06-22T11:22:07;99774.97;;;24.34;100.00
74905;BME280;63465;50.862;6.220;2023-06-22T11:24:32;99765.72;;;24.11;100.00
74905;BME280;63465;50.862;6.220;2023-06-22T11:26:57;99768.00;;;24.32;100.00
74905;BME280;63465;50.862;6.220;2023-06-22T11:29:23;99763.41;;;25.42;100.00
74905;BME280;63465;50.862;6.220;2023-06-22T11:31:48;99756.28;;;25.58;100.00
74905;BME280;63465;50.862;6.220;2023-06-22T11:34:13;99756.84;;;24.69;100.00
74905;BME280;63465;50.862;6.220;2023-06-22T11:36:39;99764.31;;;24.33;100.00
74905;BME280;63465;50.862;6.220;2023-06-22T11:39:05;99756.97;;;24.25;100.00
74905;BME280;63465;50.862;6.220;2023-06-22T11:41:31;99757.72;;;24.95;100.00
74905;BME280;63465;50.862;6.220;2023-06-22T11:43:56;99759.09;;;24.90;100.00
74905;BME280;63465;50.862;6.220;2023-06-22T11:46:21;99754.03;;;25.20;100.00
74905;BME280;63465;50.862;6.220;2023-06-22T11:48:46;99765.59;;;24.55;100.00
74905;BME280;63465;50.862;6.220;2023-06-22T11:51:12;99757.06;;;24.42;100.00
74905;BME280;63465;50.862;6.220;2023-06-22T11:53:37;99757.34;;;24.30;100.00
74905;BME280;63465;50.862;6.220;2023-06-22T11:56:02;99757.34;;;24.30;100.00
74905;BME280;63465;50.862;6.220;2023-06-22T11:58:28;99751.16;;;24.12;100.00
74905;BME280;63465;50.862;6.220;2023-06-22T12:00:54;99749.94;;;24.06;100.00
74905;BME280;63465;50.862;6.220;2023-06-22T12:03:19;99747.38;;;24.39;100.00
74905;BME280;63465;50.862;6.220;2023-06-22T12:05:46;99736.03;;;24.35;100.00
74905;BME280;63465;50.862;6.220;2023-06-22T12:08:12;99739.31;;;24.55;100.00
74905;BME280;63465;50.862;6.220;2023-06-22T12:10:39;99730.53;;;24.70;100.00
74905;BME280;63465;50.862;6.220;2023-06-22T12:13:04;99745.88;;;24.36;100.00
74905;BME280;63465;50.862;6.220;2023-06-22T12:15:29;99733.81;;;24.39;100.00
74905;BME280;63465;50.862;6.220;2023-06-22T12:17:54;99726.72;;;24.46;100.00
74905;BME280;63465;50.862;6.220;2023-06-22T12:20:20;99714.75;;;24.65;100.00
74905;BME280;63465;50.862;6.220;2023-06-22T12:22:45;99724.31;;;24.94;100.00
74905;BME280;63465;50.862;6.220;2023-06-22T12:25:11;99727.00;;;24.35;100.00
74905;BME280;63465;50.862;6.220;2023-06-22T12:27:36;99720.66;;;24.52;100.00
74905;BME280;63465;50.862;6.220;2023-06-22T12:30:03;99707.19;;;24.93;100.00
74905;BME280;63465;50.862;6.220;2023-06-22T12:32:28;99694.09;;;24.72;100.00
74905;BME280;63465;50.862;6.220;2023-06-22T12:34:54;99689.88;;;24.78;100.00
74905;BME280;63465;50.862;6.220;2023-06-22T12:37:20;99703.81;;;25.00;100.00
74905;BME280;63465;50.862;6.220;2023-06-22T12:39:45;99695.66;;;25.00;100.00
74905;BME280;63465;50.862;6.220;2023-06-22T12:42:11;99698.88;;;24.28;100.00
74905;BME280;63465;50.862;6.220;2023-06-22T12:44:40;99701.25;;;23.96;100.00